createdAt,value
2022-08-03T00:00:49.854Z,59.31
2022-08-03T00:01:51.472Z,59.41
2022-08-03T00:02:53.218Z,59.20
2022-08-03T00:03:54.869Z,59.29
2022-08-03T00:04:56.551Z,59.32
2022-08-03T00:06:04.466Z,59.42
2022-08-03T00:07:06.527Z,59.39
2022-08-03T00:08:08.143Z,59.34
2022-08-03T00:09:10.451Z,59.64
2022-08-03T00:10:13.105Z,59.51
2022-08-03T00:11:14.705Z,59.16
2022-08-03T00:12:16.612Z,59.01
2022-08-03T00:13:19.926Z,59.27
2022-08-03T00:14:21.529Z,59.57
2022-08-03T00:15:23.247Z,59.30
2022-08-03T00:16:26.410Z,59.36
2022-08-03T00:17:28.004Z,59.62
2022-08-03T00:18:29.611Z,59.32
2022-08-03T00:19:31.341Z,59.52
2022-08-03T00:20:33.008Z,59.55
2022-08-03T00:21:35.093Z,59.48
2022-08-03T00:22:36.756Z,59.63
2022-08-03T00:23:51.216Z,59.67
2022-08-03T00:24:53.567Z,59.63
2022-08-03T00:25:55.162Z,59.62
2022-08-03T00:26:57.165Z,59.38
2022-08-03T00:27:58.795Z,59.26
2022-08-03T00:29:00.464Z,59.75
2022-08-03T00:30:02.078Z,59.94
2022-08-03T00:31:03.679Z,59.37
2022-08-03T00:32:06.471Z,59.28
2022-08-03T00:33:12.504Z,59.85
2022-08-03T00:34:16.176Z,59.97
2022-08-03T00:35:36.950Z,60.02
2022-08-03T00:36:39.516Z,59.71
2022-08-03T00:37:42.004Z,59.61
2022-08-03T00:38:43.626Z,60.08
2022-08-03T00:39:47.289Z,59.95
2022-08-03T00:40:48.911Z,60.10
2022-08-03T00:41:50.670Z,59.84
2022-08-03T00:43:03.304Z,59.77
2022-08-03T00:44:04.987Z,59.72
2022-08-03T00:45:06.977Z,59.70
2022-08-03T00:46:08.575Z,59.95
2022-08-03T00:47:10.515Z,59.95
2022-08-03T00:48:24.930Z,60.51
2022-08-03T00:49:34.380Z,60.26
2022-08-03T00:50:37.063Z,60.22
2022-08-03T00:51:38.715Z,60.11
2022-08-03T00:52:40.408Z,60.83
2022-08-03T00:53:42.003Z,60.63
2022-08-03T00:54:43.620Z,60.80
2022-08-03T00:55:45.250Z,60.89
2022-08-03T00:56:59.613Z,60.80
2022-08-03T00:58:05.148Z,60.79
2022-08-03T00:59:06.792Z,60.74
2022-08-03T01:00:09.442Z,60.86
2022-08-03T01:01:12.492Z,60.93
2022-08-03T01:02:14.581Z,60.92
2022-08-03T01:03:16.337Z,61.02
2022-08-03T01:04:17.931Z,61.39
2022-08-03T01:05:20.600Z,61.21
2022-08-03T01:06:27.271Z,61.25
2022-08-03T01:07:49.939Z,61.14
2022-08-03T01:09:12.570Z,60.89
2022-08-03T01:10:32.059Z,60.89
2022-08-03T01:12:00.106Z,60.91
2022-08-03T01:13:06.991Z,60.91
2022-08-03T01:14:50.863Z,60.98
2022-08-03T01:16:04.394Z,61.07
2022-08-03T01:17:29.137Z,61.36
2022-08-03T01:18:53.736Z,61.42
2022-08-03T01:20:11.899Z,61.67
2022-08-03T01:21:18.216Z,61.57
2022-08-03T01:22:34.631Z,61.70
2022-08-03T01:23:54.516Z,61.54
2022-08-03T01:25:05.918Z,61.58
2022-08-03T01:26:28.818Z,61.70
2022-08-03T01:28:08.979Z,61.59
2022-08-03T01:29:49.874Z,61.79
2022-08-03T01:30:51.986Z,61.68
2022-08-03T01:32:58.669Z,61.62
2022-08-03T01:33:24.605Z,61.97
2022-08-03T01:34:30.125Z,61.94
2022-08-03T01:36:05.759Z,61.84
2022-08-03T01:37:08.188Z,61.84
2022-08-03T01:38:15.778Z,61.87
2022-08-03T01:39:17.928Z,61.82
2022-08-03T01:40:20.786Z,62.10
2022-08-03T01:41:29.585Z,62.20
2022-08-03T01:42:31.991Z,62.14
2022-08-03T01:44:27.174Z,62.24
2022-08-03T01:44:56.337Z,62.47
2022-08-03T01:45:58.597Z,62.42
2022-08-03T01:47:01.372Z,62.42
2022-08-03T01:48:03.873Z,62.60
2022-08-03T01:49:09.195Z,62.61
2022-08-03T01:50:11.947Z,62.92
2022-08-03T01:51:14.235Z,62.95
2022-08-03T01:52:19.239Z,63.02
2022-08-03T01:53:21.709Z,63.03
2022-08-03T01:54:24.445Z,63.26
2022-08-03T01:55:29.615Z,62.93
2022-08-03T01:56:31.830Z,63.22
2022-08-03T01:57:33.982Z,63.31
2022-08-03T01:58:56.162Z,63.37
2022-08-03T01:59:59.779Z,63.64
2022-08-03T02:01:02.588Z,63.71
2022-08-03T02:02:32.585Z,63.83
2022-08-03T02:03:30.280Z,64.02
2022-08-03T02:04:32.488Z,64.00
2022-08-03T02:05:34.784Z,64.02
2022-08-03T02:07:00.863Z,64.37
2022-08-03T02:07:59.339Z,64.27
2022-08-03T02:09:01.511Z,64.36
2022-08-03T02:10:05.344Z,64.19
2022-08-03T02:11:07.524Z,64.06
2022-08-03T02:12:12.573Z,64.07
2022-08-03T02:13:14.766Z,64.14
2022-08-03T02:14:17.017Z,64.23
2022-08-03T02:15:19.214Z,64.37
2022-08-03T02:16:21.744Z,64.76
2022-08-03T02:17:39.020Z,64.64
2022-08-03T02:18:42.551Z,64.72
2022-08-03T02:19:44.821Z,64.67
2022-08-03T02:20:47.143Z,65.03
2022-08-03T02:21:56.286Z,65.13
2022-08-03T02:23:03.511Z,65.13
2022-08-03T02:24:06.172Z,65.52
2022-08-03T02:25:12.278Z,65.62
2022-08-03T02:26:16.283Z,65.67
2022-08-03T02:27:25.052Z,65.33
2022-08-03T02:28:38.695Z,65.21
2022-08-03T02:29:41.438Z,65.44
2022-08-03T02:30:44.017Z,65.37
2022-08-03T02:31:46.157Z,65.48
2022-08-03T02:32:54.681Z,65.41
2022-08-03T02:33:59.350Z,65.45
2022-08-03T02:35:01.668Z,65.63
2022-08-03T02:36:03.938Z,65.56
2022-08-03T02:37:06.220Z,65.48
2022-08-03T02:38:08.571Z,65.42
2022-08-03T02:39:11.764Z,65.50
2022-08-03T02:40:14.137Z,65.45
2022-08-03T02:41:18.030Z,65.81
2022-08-03T02:42:21.158Z,65.56
2022-08-03T02:43:24.416Z,65.92
2022-08-03T02:44:26.588Z,65.66
2022-08-03T02:45:29.231Z,65.98
2022-08-03T02:46:33.251Z,65.89
2022-08-03T02:47:54.495Z,66.02
2022-08-03T02:48:57.079Z,65.91
2022-08-03T02:49:59.421Z,66.14
2022-08-03T02:51:01.896Z,66.16
2022-08-03T02:52:04.586Z,66.28
2022-08-03T02:53:06.814Z,66.40
2022-08-03T02:54:09.657Z,66.65
2022-08-03T02:55:12.009Z,66.79
2022-08-03T02:56:14.156Z,66.74
2022-08-03T02:57:16.339Z,66.84
2022-08-03T02:58:21.526Z,66.93
2022-08-03T02:59:23.695Z,67.19
2022-08-03T03:00:28.509Z,67.19
2022-08-03T03:01:30.874Z,67.16
2022-08-03T03:02:33.102Z,67.18
2022-08-03T03:03:41.812Z,67.26
2022-08-03T03:05:50.601Z,67.27
2022-08-03T03:06:09.372Z,67.50
2022-08-03T03:07:13.252Z,67.50
2022-08-03T03:08:17.918Z,67.60
2022-08-03T03:09:21.054Z,67.99
2022-08-03T03:10:23.200Z,67.82
2022-08-03T03:11:25.315Z,68.09
2022-08-03T03:12:26.992Z,67.96
2022-08-03T03:13:29.229Z,68.25
2022-08-03T03:14:33.872Z,68.34
2022-08-03T03:15:37.180Z,68.58
2022-08-03T03:16:39.462Z,68.55
2022-08-03T03:17:41.120Z,68.76
2022-08-03T03:18:43.624Z,68.38
2022-08-03T03:19:45.691Z,68.71
2022-08-03T03:20:47.363Z,68.71
2022-08-03T03:21:49.859Z,68.91
2022-08-03T03:22:51.537Z,68.80
2022-08-03T03:23:53.203Z,68.70
2022-08-03T03:24:55.012Z,68.86
2022-08-03T03:25:58.504Z,68.73
2022-08-03T03:27:00.125Z,68.79
2022-08-03T03:28:02.225Z,68.94
2022-08-03T03:29:03.846Z,69.04
2022-08-03T03:30:05.811Z,69.19
2022-08-03T03:31:07.497Z,69.24
2022-08-03T03:32:09.362Z,69.32
2022-08-03T03:33:11.085Z,69.45
2022-08-03T03:34:12.713Z,69.61
2022-08-03T03:35:14.448Z,69.74
2022-08-03T03:36:16.058Z,69.90
2022-08-03T03:37:17.681Z,69.81
2022-08-03T03:38:19.948Z,69.88
2022-08-03T03:39:21.575Z,70.02
2022-08-03T03:40:23.348Z,70.19
2022-08-03T03:41:24.949Z,70.26
2022-08-03T03:42:26.546Z,69.94
2022-08-03T03:43:29.566Z,70.15
2022-08-03T03:44:31.298Z,70.29
2022-08-03T03:45:34.239Z,70.37
2022-08-03T03:46:35.898Z,70.49
2022-08-03T03:47:37.622Z,70.43
2022-08-03T03:48:39.587Z,70.52
2022-08-03T03:49:43.004Z,70.54
2022-08-03T03:50:44.777Z,70.58
2022-08-03T03:51:46.374Z,70.67
2022-08-03T03:52:48.068Z,70.76
2022-08-03T03:53:59.259Z,70.83
2022-08-03T03:55:01.676Z,71.11
2022-08-03T03:56:03.692Z,71.10
2022-08-03T03:57:05.319Z,71.47
2022-08-03T03:58:07.652Z,71.41
2022-08-03T03:59:09.259Z,71.38
2022-08-03T04:00:15.781Z,71.49
2022-08-03T04:01:17.670Z,71.25
2022-08-03T04:02:19.361Z,71.37
2022-08-03T04:03:21.076Z,71.35
2022-08-03T04:04:41.117Z,71.37
2022-08-03T04:06:01.399Z,71.31
2022-08-03T04:07:21.617Z,71.34
2022-08-03T04:08:41.716Z,71.40
2022-08-03T04:10:14.260Z,71.49
2022-08-03T04:11:38.791Z,71.54
2022-08-03T04:12:50.018Z,71.33
2022-08-03T04:13:53.370Z,71.59
2022-08-03T04:14:54.962Z,71.56
2022-08-03T04:15:56.735Z,71.66
2022-08-03T04:17:01.745Z,71.39
2022-08-03T04:18:03.427Z,71.18
2022-08-03T04:19:14.019Z,71.08
2022-08-03T04:20:15.759Z,70.91
2022-08-03T04:21:18.008Z,70.72
2022-08-03T04:22:26.996Z,71.04
2022-08-03T04:23:28.615Z,71.12
2022-08-03T04:24:40.042Z,70.65
2022-08-03T04:25:41.699Z,70.32
2022-08-03T04:26:43.770Z,70.40
2022-08-03T04:27:45.394Z,70.40
2022-08-03T04:29:07.008Z,70.01
2022-08-03T04:30:08.900Z,69.65
2022-08-03T04:31:10.554Z,69.48
2022-08-03T04:32:12.148Z,69.46
2022-08-03T04:33:13.930Z,69.23
2022-08-03T04:34:15.699Z,69.07
2022-08-03T04:35:18.042Z,69.04
2022-08-03T04:36:25.506Z,68.95
2022-08-03T04:37:44.202Z,68.86
2022-08-03T04:38:56.031Z,68.94
2022-08-03T04:39:57.999Z,68.66
2022-08-03T04:40:59.975Z,68.81
2022-08-03T04:42:17.121Z,68.85
2022-08-03T04:43:18.883Z,68.69
2022-08-03T04:44:21.390Z,68.68
2022-08-03T04:45:30.655Z,68.61
2022-08-03T04:46:33.589Z,68.54
2022-08-03T04:47:35.201Z,68.41
2022-08-03T04:48:36.829Z,67.99
2022-08-03T04:49:38.612Z,67.80
2022-08-03T04:50:40.817Z,67.69
2022-08-03T04:51:42.940Z,67.69
2022-08-03T04:52:44.558Z,67.65
2022-08-03T04:53:46.204Z,67.36
2022-08-03T04:54:50.734Z,67.24
2022-08-03T04:55:52.592Z,67.44
2022-08-03T04:56:54.243Z,67.61
2022-08-03T04:57:56.576Z,67.47
2022-08-03T04:58:58.249Z,67.24
2022-08-03T05:00:03.066Z,66.90
2022-08-03T05:01:05.248Z,66.31
2022-08-03T05:02:07.270Z,66.27
2022-08-03T05:03:23.602Z,66.40
2022-08-03T05:04:26.018Z,66.12
2022-08-03T05:05:48.786Z,66.11
2022-08-03T05:06:54.926Z,65.82
2022-08-03T05:07:56.874Z,65.89
2022-08-03T05:08:58.468Z,65.76
2022-08-03T05:10:02.875Z,65.77
2022-08-03T05:11:05.141Z,65.83
2022-08-03T05:12:07.074Z,65.49
2022-08-03T05:13:12.200Z,65.82
2022-08-03T05:14:13.855Z,65.44
2022-08-03T05:15:16.009Z,64.68
2022-08-03T05:16:17.828Z,64.90
2022-08-03T05:17:19.674Z,64.88
2022-08-03T05:18:21.384Z,64.79
2022-08-03T05:19:23.002Z,64.74
2022-08-03T05:20:24.616Z,64.47
2022-08-03T05:21:26.262Z,64.33
2022-08-03T05:22:47.919Z,64.35
2022-08-03T05:23:50.035Z,64.30
2022-08-03T05:24:51.703Z,64.45
2022-08-03T05:25:53.314Z,64.47
2022-08-03T05:26:54.948Z,64.14
2022-08-03T05:27:56.627Z,64.33
2022-08-03T05:28:58.298Z,64.27
2022-08-03T05:30:29.852Z,64.19
2022-08-03T05:31:21.508Z,64.38
2022-08-03T05:32:23.129Z,64.29
2022-08-03T05:33:24.809Z,64.28
2022-08-03T05:34:26.438Z,64.21
2022-08-03T05:36:00.631Z,64.52
2022-08-03T05:36:50.648Z,64.23
2022-08-03T05:37:54.547Z,64.09
2022-08-03T05:39:00.822Z,64.19
2022-08-03T05:40:05.121Z,63.54
2022-08-03T05:41:22.972Z,63.60
2022-08-03T05:42:25.534Z,64.06
2022-08-03T05:43:27.283Z,63.66
2022-08-03T05:44:29.015Z,63.70
2022-08-03T05:45:32.399Z,63.67
2022-08-03T05:46:34.005Z,63.41
2022-08-03T05:47:35.629Z,63.44
2022-08-03T05:48:37.255Z,63.50
2022-08-03T05:49:38.974Z,63.47
2022-08-03T05:50:42.862Z,62.88
2022-08-03T05:51:44.649Z,62.86
2022-08-03T05:52:46.340Z,62.92
2022-08-03T05:53:48.254Z,61.73
2022-08-03T05:54:56.624Z,61.30
2022-08-03T05:56:03.436Z,61.61
2022-08-03T05:57:15.038Z,61.32
2022-08-03T05:58:16.659Z,61.51
2022-08-03T05:59:37.544Z,61.19
2022-08-03T06:00:39.880Z,60.98
2022-08-03T06:01:41.559Z,60.35
2022-08-03T06:02:43.230Z,60.07
2022-08-03T06:03:45.773Z,59.41
2022-08-03T06:04:47.382Z,59.24
2022-08-03T06:05:59.864Z,58.72
2022-08-03T06:07:02.080Z,58.71
2022-08-03T06:08:04.001Z,58.04
2022-08-03T06:09:05.660Z,58.17
2022-08-03T06:10:35.601Z,57.69
2022-08-03T06:11:30.534Z,57.48
2022-08-03T06:12:32.156Z,57.29
2022-08-03T06:13:33.777Z,56.94
2022-08-03T06:14:35.462Z,56.43
2022-08-03T06:15:37.100Z,56.24
2022-08-03T06:16:38.724Z,55.74
2022-08-03T06:17:47.471Z,55.67
2022-08-03T06:18:49.067Z,55.33
2022-08-03T06:19:53.523Z,55.06
2022-08-03T06:20:55.219Z,55.08
2022-08-03T06:21:56.951Z,54.76
2022-08-03T06:23:00.354Z,54.87
2022-08-03T06:24:03.053Z,55.31
2022-08-03T06:25:12.706Z,55.04
2022-08-03T06:26:14.627Z,55.02
2022-08-03T06:27:16.534Z,55.23
2022-08-03T06:28:51.842Z,55.22
2022-08-03T06:29:39.998Z,54.86
2022-08-03T06:30:41.917Z,54.60
2022-08-03T06:31:43.586Z,54.87
2022-08-03T06:32:51.639Z,54.42
2022-08-03T06:34:32.872Z,53.89
2022-08-03T06:35:16.376Z,53.83
2022-08-03T06:36:18.055Z,53.60
2022-08-03T06:37:19.722Z,53.35
2022-08-03T06:38:21.964Z,52.76
2022-08-03T06:39:23.974Z,52.74
2022-08-03T06:40:31.537Z,52.22
2022-08-03T06:41:37.505Z,52.38
2022-08-03T06:42:46.330Z,51.81
2022-08-03T06:44:03.927Z,51.59
2022-08-03T06:45:07.489Z,52.09
2022-08-03T06:46:09.389Z,51.50
2022-08-03T06:47:11.504Z,51.99
2022-08-03T06:48:13.260Z,51.92
2022-08-03T06:49:14.905Z,51.81
2022-08-03T06:50:19.034Z,51.28
2022-08-03T06:52:03.376Z,50.78
2022-08-03T06:52:45.510Z,50.55
2022-08-03T06:53:47.247Z,50.43
2022-08-03T06:54:48.879Z,50.40
2022-08-03T06:55:54.360Z,50.16
2022-08-03T06:56:56.786Z,49.72
2022-08-03T06:57:59.968Z,49.95
2022-08-03T06:59:04.902Z,49.47
2022-08-03T07:00:12.231Z,48.65
2022-08-03T07:01:14.422Z,48.93
2022-08-03T07:02:20.480Z,49.42
2022-08-03T07:03:22.278Z,49.79
2022-08-03T07:04:23.894Z,49.38
2022-08-03T07:05:25.620Z,48.84
2022-08-03T07:06:27.348Z,48.22
2022-08-03T07:07:28.976Z,48.46
2022-08-03T07:08:33.600Z,48.37
2022-08-03T07:09:36.020Z,48.32
2022-08-03T07:10:38.011Z,48.10
2022-08-03T07:11:39.625Z,48.21
2022-08-03T07:12:55.915Z,47.58
2022-08-03T07:13:58.452Z,47.72
2022-08-03T07:15:02.565Z,47.46
2022-08-03T07:16:04.918Z,47.42
2022-08-03T07:17:11.511Z,47.62
2022-08-03T07:18:13.950Z,47.46
2022-08-03T07:19:15.682Z,47.46
2022-08-03T07:20:18.375Z,47.14
2022-08-03T07:21:20.029Z,47.50
2022-08-03T07:22:21.738Z,47.32
2022-08-03T07:23:23.493Z,47.31
2022-08-03T07:24:25.162Z,46.79
2022-08-03T07:25:29.037Z,46.95
2022-08-03T07:26:30.651Z,47.88
2022-08-03T07:27:32.436Z,47.53
2022-08-03T07:28:34.202Z,47.81
2022-08-03T07:29:35.953Z,47.08
2022-08-03T07:30:37.555Z,47.32
2022-08-03T07:31:39.162Z,47.13
2022-08-03T07:32:49.770Z,47.05
2022-08-03T07:33:52.655Z,47.05
2022-08-03T07:34:58.517Z,47.01
2022-08-03T07:36:02.064Z,46.29
2022-08-03T07:37:03.762Z,46.60
2022-08-03T07:38:05.373Z,47.01
2022-08-03T07:39:17.428Z,46.35
2022-08-03T07:40:19.627Z,46.75
2022-08-03T07:41:21.234Z,46.36
2022-08-03T07:42:24.007Z,46.97
2022-08-03T07:43:25.657Z,46.69
2022-08-03T07:44:27.307Z,46.65
2022-08-03T07:45:30.060Z,46.47
2022-08-03T07:46:31.729Z,46.43
2022-08-03T07:47:34.898Z,46.32
2022-08-03T07:48:37.379Z,46.19
2022-08-03T07:49:40.551Z,46.30
2022-08-03T07:50:42.217Z,46.49
2022-08-03T07:51:43.899Z,46.18
2022-08-03T07:52:48.410Z,46.10
2022-08-03T07:53:50.047Z,46.15
2022-08-03T07:54:54.695Z,45.98
2022-08-03T07:55:57.076Z,46.07
2022-08-03T07:56:58.689Z,45.87
2022-08-03T07:58:01.999Z,45.98
2022-08-03T07:59:03.668Z,46.22
2022-08-03T08:00:06.838Z,46.40
2022-08-03T08:01:08.667Z,46.08
2022-08-03T08:02:10.990Z,46.06
2022-08-03T08:03:13.367Z,46.24
2022-08-03T08:04:14.965Z,46.39
2022-08-03T08:05:16.919Z,46.63
2022-08-03T08:06:18.625Z,46.23
2022-08-03T08:07:20.649Z,45.74
2022-08-03T08:08:22.381Z,46.39
2022-08-03T08:09:24.061Z,46.18
2022-08-03T08:10:25.893Z,46.33
2022-08-03T08:11:27.501Z,46.10
2022-08-03T08:12:29.090Z,45.55
2022-08-03T08:13:30.733Z,45.69
2022-08-03T08:14:32.337Z,45.72
2022-08-03T08:15:34.006Z,45.78
2022-08-03T08:16:35.681Z,45.89
2022-08-03T08:17:50.719Z,46.45
2022-08-03T08:18:52.342Z,46.28
2022-08-03T08:19:54.052Z,46.15
2022-08-03T08:20:57.007Z,46.20
2022-08-03T08:22:02.572Z,46.34
2022-08-03T08:23:10.281Z,45.92
2022-08-03T08:24:30.500Z,45.38
2022-08-03T08:25:33.151Z,45.39
2022-08-03T08:26:35.031Z,45.08
2022-08-03T08:28:29.235Z,45.12
2022-08-03T08:29:09.305Z,45.21
2022-08-03T08:30:13.910Z,45.36
2022-08-03T08:31:17.647Z,45.39
2022-08-03T08:32:19.498Z,45.52
2022-08-03T08:33:23.418Z,46.15
2022-08-03T08:34:25.933Z,45.98
2022-08-03T08:35:27.607Z,45.78
2022-08-03T08:36:29.223Z,46.42
2022-08-03T08:37:30.881Z,45.99
2022-08-03T08:38:32.572Z,45.86
2022-08-03T08:39:34.191Z,45.06
2022-08-03T08:40:35.814Z,44.69
2022-08-03T08:41:37.436Z,44.94
2022-08-03T08:42:57.532Z,45.01
2022-08-03T08:44:00.948Z,44.98
2022-08-03T08:45:05.209Z,44.63
2022-08-03T08:46:08.716Z,45.27
2022-08-03T08:47:10.378Z,45.11
2022-08-03T08:48:13.434Z,45.32
2022-08-03T08:49:16.157Z,45.75
2022-08-03T08:50:27.307Z,45.26
2022-08-03T08:51:59.570Z,45.09
2022-08-03T08:52:55.337Z,45.28
2022-08-03T08:53:57.827Z,45.35
2022-08-03T08:55:00.487Z,45.71
2022-08-03T08:56:02.130Z,45.74
2022-08-03T08:57:12.467Z,46.06
2022-08-03T08:58:26.388Z,45.82
2022-08-03T08:59:48.319Z,45.65
2022-08-03T09:00:50.367Z,45.68
2022-08-03T09:01:52.009Z,46.46
2022-08-03T09:02:53.663Z,43.77
2022-08-03T09:03:55.340Z,45.19
2022-08-03T09:04:57.601Z,44.14
2022-08-03T09:06:00.698Z,42.88
2022-08-03T09:07:19.126Z,42.66
2022-08-03T09:08:23.218Z,42.77
2022-08-03T09:10:04.791Z,43.27
2022-08-03T09:10:46.602Z,43.64
2022-08-03T09:11:52.529Z,43.52
2022-08-03T09:13:06.454Z,42.96
2022-08-03T09:14:08.176Z,42.32
2022-08-03T09:15:22.881Z,41.84
2022-08-03T09:16:24.584Z,41.92
2022-08-03T09:17:26.188Z,41.93
2022-08-03T09:18:32.521Z,42.59
2022-08-03T09:19:34.821Z,42.12
2022-08-03T09:20:37.194Z,40.97
2022-08-03T09:21:38.853Z,40.57
2022-08-03T09:23:00.484Z,40.44
2022-08-03T09:24:05.292Z,40.92
2022-08-03T09:25:27.240Z,41.81
2022-08-03T09:26:30.381Z,41.74
2022-08-03T09:27:44.664Z,41.87
2022-08-03T09:29:01.187Z,41.31
2022-08-03T09:30:06.996Z,41.98
2022-08-03T09:31:32.802Z,40.99
2022-08-03T09:32:34.422Z,41.82
2022-08-03T09:33:46.947Z,41.44
2022-08-03T09:34:49.542Z,40.78
2022-08-03T09:35:53.949Z,40.76
2022-08-03T09:36:58.386Z,40.83
2022-08-03T09:38:14.147Z,41.17
2022-08-03T09:39:40.271Z,41.19
2022-08-03T09:40:42.707Z,41.09
2022-08-03T09:41:48.850Z,41.02
2022-08-03T09:42:56.822Z,40.62
2022-08-03T09:43:58.496Z,41.13
2022-08-03T09:45:00.476Z,40.07
2022-08-03T09:46:03.095Z,40.47
2022-08-03T09:47:05.317Z,40.67
2022-08-03T09:48:20.804Z,40.81
2022-08-03T09:49:22.657Z,40.55
2022-08-03T09:50:24.312Z,40.67
2022-08-03T09:51:32.850Z,40.18
2022-08-03T09:52:52.707Z,40.18
2022-08-03T09:54:00.278Z,40.30
2022-08-03T09:55:04.125Z,39.96
2022-08-03T09:56:33.495Z,39.92
2022-08-03T09:57:27.650Z,39.03
2022-08-03T09:58:30.852Z,39.04
2022-08-03T09:59:33.321Z,38.72
2022-08-03T10:00:42.853Z,38.68
2022-08-03T10:01:44.560Z,39.07
2022-08-03T10:02:46.275Z,38.66
2022-08-03T10:04:04.021Z,38.54
2022-08-03T10:05:07.122Z,38.95
2022-08-03T10:06:22.484Z,38.67
2022-08-03T10:07:30.550Z,37.88
2022-08-03T10:08:32.445Z,38.63
2022-08-03T10:09:34.100Z,38.46
2022-08-03T10:10:42.826Z,38.82
2022-08-03T10:11:44.694Z,39.34
2022-08-03T10:12:48.184Z,39.10
2022-08-03T10:13:50.857Z,39.48
2022-08-03T10:14:59.716Z,39.58
2022-08-03T10:16:21.661Z,40.24
2022-08-03T10:17:23.461Z,39.86
2022-08-03T10:18:25.073Z,39.98
2022-08-03T10:19:26.770Z,39.86
2022-08-03T10:20:28.376Z,39.69
2022-08-03T10:21:37.789Z,39.73
2022-08-03T10:22:39.634Z,39.50
2022-08-03T10:23:41.267Z,39.78
2022-08-03T10:25:05.803Z,38.94
2022-08-03T10:26:08.340Z,38.96
2022-08-03T10:27:09.971Z,39.22
2022-08-03T10:28:13.220Z,38.59
2022-08-03T10:29:18.959Z,38.16
2022-08-03T10:30:20.588Z,38.06
2022-08-03T10:31:31.629Z,37.55
2022-08-03T10:32:39.261Z,37.44
2022-08-03T10:33:51.718Z,38.48
2022-08-03T10:34:59.948Z,38.54
2022-08-03T10:36:01.731Z,39.30
2022-08-03T10:37:04.554Z,39.62
2022-08-03T10:38:10.958Z,39.47
2022-08-03T10:39:16.075Z,38.29
2022-08-03T10:40:39.659Z,38.43
2022-08-03T10:41:46.396Z,38.87
2022-08-03T10:42:51.125Z,39.16
2022-08-03T10:44:13.679Z,38.90
2022-08-03T10:45:19.960Z,39.43
2022-08-03T10:46:21.593Z,38.82
2022-08-03T10:47:23.312Z,38.99
2022-08-03T10:48:24.947Z,38.94
2022-08-03T10:49:35.280Z,39.02
2022-08-03T10:50:37.342Z,38.74
2022-08-03T10:51:38.949Z,40.38
2022-08-03T10:53:02.254Z,39.91
2022-08-03T10:54:05.677Z,39.66
2022-08-03T10:55:52.456Z,40.17
2022-08-03T10:57:14.138Z,40.23
2022-08-03T10:58:30.573Z,40.93
2022-08-03T10:59:55.288Z,40.58
2022-08-03T11:00:57.045Z,40.77
2022-08-03T11:02:00.608Z,40.20
2022-08-03T11:03:07.006Z,40.80
2022-08-03T11:04:11.948Z,39.82
2022-08-03T11:05:31.862Z,40.58
2022-08-03T11:06:37.195Z,39.48
2022-08-03T11:07:39.319Z,39.42
2022-08-03T11:08:40.995Z,39.68
2022-08-03T11:09:43.442Z,39.56
2022-08-03T11:10:45.072Z,39.34
2022-08-03T11:11:47.891Z,39.58
2022-08-03T11:12:49.563Z,39.87
2022-08-03T11:13:57.743Z,39.72
2022-08-03T11:15:01.375Z,39.15
2022-08-03T11:16:07.092Z,38.23
2022-08-03T11:17:14.531Z,38.80
2022-08-03T11:18:16.567Z,38.71
2022-08-03T11:19:22.664Z,39.01
2022-08-03T11:20:52.299Z,39.63
2022-08-03T11:21:54.746Z,37.97
2022-08-03T11:22:58.491Z,38.42
2022-08-03T11:24:03.048Z,38.71
2022-08-03T11:25:07.946Z,38.97
2022-08-03T11:26:18.985Z,37.20
2022-08-03T11:27:21.572Z,36.90
2022-08-03T11:28:30.710Z,36.82
2022-08-03T11:29:33.831Z,36.92
2022-08-03T11:30:35.435Z,36.68
2022-08-03T11:31:49.721Z,36.53
2022-08-03T11:32:52.785Z,36.64
2022-08-03T11:34:14.309Z,37.12
2022-08-03T11:35:19.730Z,37.05
2022-08-03T11:36:32.406Z,36.72
2022-08-03T11:37:34.367Z,36.65
2022-08-03T11:38:36.021Z,37.20
2022-08-03T11:39:45.871Z,37.37
2022-08-03T11:40:51.047Z,36.62
2022-08-03T11:41:52.662Z,36.80
2022-08-03T11:42:54.272Z,37.11
2022-08-03T11:43:55.890Z,37.38
2022-08-03T11:44:58.249Z,36.54
2022-08-03T11:46:01.698Z,37.02
2022-08-03T11:47:03.304Z,36.84
2022-08-03T11:48:16.101Z,36.86
2022-08-03T11:49:17.764Z,37.62
2022-08-03T11:50:20.206Z,37.55
2022-08-03T11:51:26.071Z,36.99
2022-08-03T11:52:28.974Z,36.92
2022-08-03T11:53:30.710Z,37.37
2022-08-03T11:54:32.349Z,37.31
2022-08-03T11:55:34.101Z,37.61
2022-08-03T11:56:46.013Z,37.91
2022-08-03T11:59:16.499Z,36.95
2022-08-03T11:59:20.710Z,37.45
2022-08-03T12:00:28.352Z,37.18
2022-08-03T12:01:32.058Z,37.44
2022-08-03T12:02:35.612Z,37.80
2022-08-03T12:03:37.338Z,37.79
2022-08-03T12:05:01.577Z,37.95
2022-08-03T12:06:04.581Z,37.40
2022-08-03T12:07:06.292Z,35.64
2022-08-03T12:08:08.858Z,36.67
2022-08-03T12:09:16.674Z,37.28
2022-08-03T12:10:18.605Z,37.21
2022-08-03T12:11:20.315Z,36.89
2022-08-03T12:12:21.981Z,38.72
2022-08-03T12:14:28.888Z,35.33
2022-08-03T12:14:52.163Z,34.20
2022-08-03T12:15:56.062Z,36.04
2022-08-03T12:16:57.744Z,34.81
2022-08-03T12:18:00.072Z,35.27
2022-08-03T12:19:04.896Z,35.63
2022-08-03T12:20:07.934Z,35.25
2022-08-03T12:21:10.255Z,35.43
2022-08-03T12:22:12.115Z,36.49
2022-08-03T12:23:13.771Z,36.19
2022-08-03T12:24:15.461Z,35.07
2022-08-03T12:25:38.672Z,35.61
2022-08-03T12:26:57.224Z,35.36
2022-08-03T12:28:36.114Z,36.64
2022-08-03T12:29:32.946Z,35.24
2022-08-03T12:30:34.783Z,36.42
2022-08-03T12:31:36.454Z,36.08
2022-08-03T12:32:38.074Z,35.09
2022-08-03T12:34:15.619Z,35.28
2022-08-03T12:35:24.553Z,36.23
2022-08-03T12:36:26.643Z,35.43
2022-08-03T12:37:28.333Z,35.21
2022-08-03T12:38:31.206Z,34.79
2022-08-03T12:39:32.834Z,34.23
2022-08-03T12:40:34.571Z,33.90
2022-08-03T12:41:39.970Z,33.75
2022-08-03T12:42:41.719Z,33.56
2022-08-03T12:43:49.637Z,32.90
2022-08-03T12:44:51.465Z,33.26
2022-08-03T12:46:11.181Z,32.90
2022-08-03T12:47:12.956Z,32.54
2022-08-03T12:48:14.632Z,31.86
2022-08-03T12:49:17.445Z,30.99
2022-08-03T12:50:27.108Z,30.84
2022-08-03T12:51:29.863Z,30.26
2022-08-03T12:52:31.483Z,30.40
2022-08-03T12:53:33.157Z,29.81
2022-08-03T12:54:36.142Z,29.91
2022-08-03T12:55:57.922Z,30.00
2022-08-03T12:57:06.910Z,29.15
2022-08-03T12:58:13.681Z,29.20
2022-08-03T12:59:24.324Z,30.81
2022-08-03T13:00:34.229Z,30.80
2022-08-03T13:01:37.183Z,30.93
2022-08-03T13:02:38.913Z,31.17
2022-08-03T13:03:49.677Z,31.76
2022-08-03T13:04:53.179Z,30.79
2022-08-03T13:05:54.850Z,30.97
2022-08-03T13:07:03.797Z,30.72
2022-08-03T13:08:05.468Z,30.50
2022-08-03T13:09:07.612Z,29.71
2022-08-03T13:10:09.612Z,28.50
2022-08-03T13:11:55.929Z,28.72
2022-08-03T13:12:48.848Z,29.35
2022-08-03T13:13:54.283Z,29.80
2022-08-03T13:14:57.161Z,29.18
2022-08-03T13:15:58.775Z,29.28
2022-08-03T13:17:00.423Z,29.87
2022-08-03T13:18:02.109Z,29.75
2022-08-03T13:19:04.515Z,29.81
2022-08-03T13:20:06.617Z,29.12
2022-08-03T13:21:08.254Z,29.36
2022-08-03T13:22:20.369Z,29.76
2022-08-03T13:23:22.777Z,29.72
2022-08-03T13:24:24.593Z,30.27
2022-08-03T13:25:26.225Z,29.94
2022-08-03T13:26:27.828Z,30.23
2022-08-03T13:28:03.652Z,29.93
2022-08-03T13:28:51.269Z,30.02
2022-08-03T13:29:53.578Z,30.24
2022-08-03T13:30:55.277Z,30.13
2022-08-03T13:31:56.906Z,30.17
2022-08-03T13:33:00.242Z,30.20
2022-08-03T13:34:01.851Z,30.02
2022-08-03T13:35:03.865Z,30.11
2022-08-03T13:36:05.640Z,30.39
2022-08-03T13:37:09.387Z,30.64
2022-08-03T13:38:11.788Z,30.97
2022-08-03T13:39:14.036Z,31.10
2022-08-03T13:40:15.793Z,30.97
2022-08-03T13:41:17.449Z,31.26
2022-08-03T13:42:19.162Z,31.30
2022-08-03T13:43:21.545Z,31.26
2022-08-03T13:44:29.300Z,31.30
2022-08-03T13:45:31.614Z,31.79
2022-08-03T13:46:33.344Z,32.34
2022-08-03T13:47:35.032Z,32.56
2022-08-03T13:48:37.643Z,31.82
2022-08-03T13:49:39.551Z,31.59
2022-08-03T13:50:43.076Z,31.70
2022-08-03T13:51:44.978Z,32.03
2022-08-03T13:52:46.948Z,32.09
2022-08-03T13:53:48.559Z,32.11
2022-08-03T13:54:50.217Z,32.29
2022-08-03T13:55:51.857Z,31.68
2022-08-03T13:56:55.788Z,31.65
2022-08-03T13:58:02.973Z,32.22
2022-08-03T13:59:08.578Z,31.96
2022-08-03T14:00:10.794Z,31.74
2022-08-03T14:01:12.653Z,31.77
2022-08-03T14:02:14.478Z,32.58
2022-08-03T14:03:16.182Z,33.02
2022-08-03T14:04:22.115Z,31.88
2022-08-03T14:05:24.365Z,32.01